sensor_id;sensor_type;location;lat;lon;timestamp;pressure;altitude;pressure_sealevel;temperature;humidity
72210;BME280;60113;48.762;12.302;2023-07-20T00:01:19;96931.38;;;18.09;49.60
72210;BME280;60113;48.762;12.302;2023-07-20T00:03:44;96945.69;;;18.08;46.80
72210;BME280;60113;48.762;12.302;2023-07-20T00:06:12;96948.34;;;18.08;46.28
72210;BME280;60113;48.762;12.302;2023-07-20T00:08:38;96955.47;;;18.08;46.30
72210;BME280;60113;48.762;12.302;2023-07-20T00:11:03;96943.19;;;18.07;47.34
72210;BME280;60113;48.762;12.302;2023-07-20T00:13:28;96948.69;;;18.05;47.47
72210;BME280;60113;48.762;12.302;2023-07-20T00:15:54;96949.69;;;18.04;46.60
72210;BME280;60113;48.762;12.302;2023-07-20T00:18:22;96950.84;;;18.02;47.00
72210;BME280;60113;48.762;12.302;2023-07-20T00:20:50;96949.19;;;18.00;46.88
72210;BME280;60113;48.762;12.302;2023-07-20T00:23:25;96952.19;;;17.97;48.19
72210;BME280;60113;48.762;12.302;2023-07-20T00:25:54;96952.53;;;17.94;47.56
72210;BME280;60113;48.762;12.302;2023-07-20T00:28:25;96953.88;;;17.90;47.40
72210;BME280;60113;48.762;12.302;2023-07-20T00:30:50;96952.59;;;17.86;47.58
72210;BME280;60113;48.762;12.302;2023-07-20T00:33:18;96950.09;;;17.84;47.40
72210;BME280;60113;48.762;12.302;2023-07-20T00:35:47;96957.41;;;17.82;47.78
72210;BME280;60113;48.762;12.302;2023-07-20T00:38:15;96954.06;;;17.80;48.11
72210;BME280;60113;48.762;12.302;2023-07-20T00:40:43;96955.09;;;17.79;47.20
72210;BME280;60113;48.762;12.302;2023-07-20T00:43:11;96962.03;;;17.80;47.86
72210;BME280;60113;48.762;12.302;2023-07-20T00:45:49;96963.06;;;17.79;48.04
72210;BME280;60113;48.762;12.302;2023-07-20T00:48:14;96966.56;;;17.80;47.85
72210;BME280;60113;48.762;12.302;2023-07-20T00:50:40;96963.06;;;17.79;47.97
72210;BME280;60113;48.762;12.302;2023-07-20T00:53:09;96962.88;;;17.81;46.99
72210;BME280;60113;48.762;12.302;2023-07-20T00:55:43;96966.56;;;17.80;47.35
72210;BME280;60113;48.762;12.302;2023-07-20T00:58:09;96957.75;;;17.79;47.57
72210;BME280;60113;48.762;12.302;2023-07-20T01:00:44;96957.25;;;17.75;47.69
72210;BME280;60113;48.762;12.302;2023-07-20T01:03:09;96957.56;;;17.72;47.65
72210;BME280;60113;48.762;12.302;2023-07-20T01:06:08;96967.91;;;17.67;59.64
72210;BME280;60113;48.762;12.302;2023-07-20T01:08:45;96963.44;;;17.59;52.11
72210;BME280;60113;48.762;12.302;2023-07-20T01:13:46;96961.63;;;17.43;47.62
72210;BME280;60113;48.762;12.302;2023-07-20T01:16:14;96958.97;;;17.35;47.60
72210;BME280;60113;48.762;12.302;2023-07-20T01:18:40;96960.97;;;17.24;47.92
72210;BME280;60113;48.762;12.302;2023-07-20T01:21:09;96953.34;;;17.13;48.48
72210;BME280;60113;48.762;12.302;2023-07-20T01:32:51;96955.97;;;16.88;48.40
72210;BME280;60113;48.762;12.302;2023-07-20T01:35:20;96953.47;;;16.86;48.89
72210;BME280;60113;48.762;12.302;2023-07-20T01:37:49;96955.13;;;16.87;49.13
72210;BME280;60113;48.762;12.302;2023-07-20T01:40:15;96949.13;;;16.85;48.66
72210;BME280;60113;48.762;12.302;2023-07-20T01:42:45;96946.50;;;16.85;51.23
72210;BME280;60113;48.762;12.302;2023-07-20T01:45:11;96944.84;;;16.84;48.16
72210;BME280;60113;48.762;12.302;2023-07-20T01:47:36;96947.31;;;16.86;48.73
72210;BME280;60113;48.762;12.302;2023-07-20T01:50:02;96950.66;;;16.88;49.02
72210;BME280;60113;48.762;12.302;2023-07-20T01:52:30;96941.69;;;16.89;49.25
72210;BME280;60113;48.762;12.302;2023-07-20T01:55:01;96938.03;;;16.90;49.08
72210;BME280;60113;48.762;12.302;2023-07-20T01:57:29;96941.53;;;16.91;48.87
72210;BME280;60113;48.762;12.302;2023-07-20T01:59:57;96944.69;;;16.94;49.01
72210;BME280;60113;48.762;12.302;2023-07-20T02:02:32;96932.91;;;16.97;48.84
72210;BME280;60113;48.762;12.302;2023-07-20T02:04:57;96939.06;;;16.97;49.16
72210;BME280;60113;48.762;12.302;2023-07-20T02:07:42;96932.06;;;16.96;50.29
72210;BME280;60113;48.762;12.302;2023-07-20T02:10:10;96930.41;;;16.95;50.01
72210;BME280;60113;48.762;12.302;2023-07-20T02:12:44;96934.88;;;16.95;49.59
72210;BME280;60113;48.762;12.302;2023-07-20T02:15:19;96935.22;;;16.92;50.66
72210;BME280;60113;48.762;12.302;2023-07-20T02:17:44;96935.38;;;16.90;50.85
72210;BME280;60113;48.762;12.302;2023-07-20T02:20:10;96932.91;;;16.88;50.77
72210;BME280;60113;48.762;12.302;2023-07-20T02:22:45;96935.53;;;16.88;51.08
72210;BME280;60113;48.762;12.302;2023-07-20T02:25:16;96942.69;;;16.88;50.29
72210;BME280;60113;48.762;12.302;2023-07-20T02:27:41;96943.19;;;16.83;51.93
72210;BME280;60113;48.762;12.302;2023-07-20T02:30:07;96948.16;;;16.78;51.83
72210;BME280;60113;48.762;12.302;2023-07-20T02:32:37;96945.97;;;16.73;53.53
72210;BME280;60113;48.762;12.302;2023-07-20T02:35:05;96948.28;;;16.68;52.34
72210;BME280;60113;48.762;12.302;2023-07-20T02:37:40;96943.66;;;16.62;51.31
72210;BME280;60113;48.762;12.302;2023-07-20T02:40:06;96949.47;;;16.57;51.46
72210;BME280;60113;48.762;12.302;2023-07-20T02:42:35;96957.06;;;16.52;52.55
72210;BME280;60113;48.762;12.302;2023-07-20T02:45:03;96957.69;;;16.46;53.89
72210;BME280;60113;48.762;12.302;2023-07-20T02:47:32;96954.03;;;16.39;52.32
72210;BME280;60113;48.762;12.302;2023-07-20T02:50:08;96962.81;;;16.31;51.48
72210;BME280;60113;48.762;12.302;2023-07-20T02:52:48;96979.81;;;16.20;51.67
72210;BME280;60113;48.762;12.302;2023-07-20T02:55:14;96976.59;;;16.08;52.46
72210;BME280;60113;48.762;12.302;2023-07-20T02:57:48;96970.72;;;15.96;52.67
72210;BME280;60113;48.762;12.302;2023-07-20T03:00:14;96963.56;;;15.88;52.26
72210;BME280;60113;48.762;12.302;2023-07-20T03:02:46;96974.63;;;15.83;52.76
72210;BME280;60113;48.762;12.302;2023-07-20T03:05:23;96975.78;;;15.81;52.53
72210;BME280;60113;48.762;12.302;2023-07-20T03:08:01;96976.94;;;15.78;53.99
72210;BME280;60113;48.762;12.302;2023-07-20T03:10:40;96979.44;;;15.80;52.86
72210;BME280;60113;48.762;12.302;2023-07-20T03:13:08;96977.44;;;15.82;53.48
72210;BME280;60113;48.762;12.302;2023-07-20T03:15:40;96977.97;;;15.85;54.43
72210;BME280;60113;48.762;12.302;2023-07-20T03:18:08;96981.16;;;15.89;56.82
72210;BME280;60113;48.762;12.302;2023-07-20T03:20:51;96984.13;;;15.94;54.94
72210;BME280;60113;48.762;12.302;2023-07-20T03:23:20;96987.84;;;16.02;55.23
72210;BME280;60113;48.762;12.302;2023-07-20T03:25:54;96986.41;;;16.07;54.39
72210;BME280;60113;48.762;12.302;2023-07-20T03:28:23;96991.38;;;16.10;54.55
72210;BME280;60113;48.762;12.302;2023-07-20T03:30:57;96996.84;;;16.17;67.26
72210;BME280;60113;48.762;12.302;2023-07-20T03:33:42;96995.22;;;16.16;54.31
72210;BME280;60113;48.762;12.302;2023-07-20T03:36:07;96995.72;;;16.20;55.32
72210;BME280;60113;48.762;12.302;2023-07-20T03:38:41;96997.22;;;16.22;54.34
72210;BME280;60113;48.762;12.302;2023-07-20T03:41:10;96995.09;;;16.26;53.06
72210;BME280;60113;48.762;12.302;2023-07-20T03:43:48;97000.41;;;16.26;54.27
72210;BME280;60113;48.762;12.302;2023-07-20T03:46:14;96995.59;;;16.30;55.10
72210;BME280;60113;48.762;12.302;2023-07-20T03:48:51;96996.94;;;16.34;57.94
72210;BME280;60113;48.762;12.302;2023-07-20T03:51:17;96994.94;;;16.36;56.07
72210;BME280;60113;48.762;12.302;2023-07-20T03:53:42;96984.69;;;16.41;55.32
72210;BME280;60113;48.762;12.302;2023-07-20T03:56:07;96986.72;;;16.47;55.81
72210;BME280;60113;48.762;12.302;2023-07-20T03:58:36;96988.72;;;16.54;54.37
72210;BME280;60113;48.762;12.302;2023-07-20T04:01:02;96986.25;;;16.60;56.46
72210;BME280;60113;48.762;12.302;2023-07-20T04:03:27;96992.91;;;16.65;53.18
72210;BME280;60113;48.762;12.302;2023-07-20T04:05:55;96990.56;;;16.70;61.08
72210;BME280;60113;48.762;12.302;2023-07-20T04:08:24;96994.75;;;16.72;55.36
72210;BME280;60113;48.762;12.302;2023-07-20T04:10:50;96993.41;;;16.77;55.34
72210;BME280;60113;48.762;12.302;2023-07-20T04:13:15;97007.19;;;16.80;59.23
72210;BME280;60113;48.762;12.302;2023-07-20T04:15:42;97002.53;;;16.82;55.45
72210;BME280;60113;48.762;12.302;2023-07-20T04:18:07;97011.16;;;16.84;56.54
72210;BME280;60113;48.762;12.302;2023-07-20T04:20:48;97005.69;;;16.86;55.02
72210;BME280;60113;48.762;12.302;2023-07-20T04:23:13;97006.38;;;16.88;56.46
72210;BME280;60113;48.762;12.302;2023-07-20T04:25:39;97015.81;;;16.91;55.61
72210;BME280;60113;48.762;12.302;2023-07-20T04:28:08;97012.16;;;16.92;55.68
72210;BME280;60113;48.762;12.302;2023-07-20T04:30:37;97026.78;;;16.96;58.28
72210;BME280;60113;48.762;12.302;2023-07-20T04:33:03;97022.81;;;17.00;61.88
72210;BME280;60113;48.762;12.302;2023-07-20T04:35:49;97017.19;;;17.03;62.24
72210;BME280;60113;48.762;12.302;2023-07-20T04:38:18;97022.66;;;17.02;57.11
72210;BME280;60113;48.762;12.302;2023-07-20T04:40:48;97022.47;;;17.03;55.84
72210;BME280;60113;48.762;12.302;2023-07-20T04:43:14;97018.00;;;17.04;56.46
72210;BME280;60113;48.762;12.302;2023-07-20T04:45:40;97016.84;;;17.06;55.00
72210;BME280;60113;48.762;12.302;2023-07-20T04:48:18;97014.91;;;17.08;57.11
72210;BME280;60113;48.762;12.302;2023-07-20T04:50:46;97022.69;;;17.10;55.41
72210;BME280;60113;48.762;12.302;2023-07-20T04:53:14;97023.34;;;17.12;54.37
72210;BME280;60113;48.762;12.302;2023-07-20T04:55:50;97021.19;;;17.16;57.21
72210;BME280;60113;48.762;12.302;2023-07-20T04:58:29;97024.69;;;17.16;55.75
72210;BME280;60113;48.762;12.302;2023-07-20T05:00:54;97033.97;;;17.20;56.07
72210;BME280;60113;48.762;12.302;2023-07-20T05:03:19;97034.66;;;17.22;53.99
72210;BME280;60113;48.762;12.302;2023-07-20T05:05:48;97041.28;;;17.27;53.95
72210;BME280;60113;48.762;12.302;2023-07-20T05:08:16;97034.81;;;17.29;53.75
72210;BME280;60113;48.762;12.302;2023-07-20T05:10:45;97045.94;;;17.33;54.20
72210;BME280;60113;48.762;12.302;2023-07-20T05:13:10;97036.47;;;17.39;55.26
72210;BME280;60113;48.762;12.302;2023-07-20T05:18:12;97036.66;;;17.45;55.75
72210;BME280;60113;48.762;12.302;2023-07-20T05:20:38;97041.47;;;17.50;53.91
72210;BME280;60113;48.762;12.302;2023-07-20T05:23:03;97044.59;;;17.54;52.95
72210;BME280;60113;48.762;12.302;2023-07-20T05:25:41;97036.81;;;17.60;54.29
72210;BME280;60113;48.762;12.302;2023-07-20T05:28:09;97039.81;;;17.66;55.17
72210;BME280;60113;48.762;12.302;2023-07-20T05:30:37;97041.97;;;17.70;54.05
72210;BME280;60113;48.762;12.302;2023-07-20T05:33:08;97043.94;;;17.77;52.56
72210;BME280;60113;48.762;12.302;2023-07-20T05:35:36;97041.44;;;17.83;54.95
72210;BME280;60113;48.762;12.302;2023-07-20T05:38:04;97051.38;;;17.90;55.14
72210;BME280;60113;48.762;12.302;2023-07-20T05:40:31;97051.88;;;17.93;56.24
72210;BME280;60113;48.762;12.302;2023-07-20T05:43:09;97047.41;;;17.94;56.70
72210;BME280;60113;48.762;12.302;2023-07-20T05:45:41;97045.22;;;17.97;56.41
72210;BME280;60113;48.762;12.302;2023-07-20T05:48:08;97057.53;;;17.98;56.79
72210;BME280;60113;48.762;12.302;2023-07-20T05:50:41;97053.69;;;18.01;55.84
72210;BME280;60113;48.762;12.302;2023-07-20T05:53:07;97059.50;;;18.05;54.72
72210;BME280;60113;48.762;12.302;2023-07-20T05:55:42;97051.72;;;18.11;53.06
72210;BME280;60113;48.762;12.302;2023-07-20T05:58:07;97053.50;;;18.19;53.09
72210;BME280;60113;48.762;12.302;2023-07-20T06:00:38;97055.50;;;18.26;55.56
72210;BME280;60113;48.762;12.302;2023-07-20T06:03:19;97056.50;;;18.24;53.50
72210;BME280;60113;48.762;12.302;2023-07-20T06:05:49;97068.78;;;18.26;56.16
72210;BME280;60113;48.762;12.302;2023-07-20T06:08:18;97052.50;;;18.29;56.72
72210;BME280;60113;48.762;12.302;2023-07-20T06:10:49;97062.81;;;18.23;57.30
72210;BME280;60113;48.762;12.302;2023-07-20T06:13:16;97067.31;;;18.23;54.41
72210;BME280;60113;48.762;12.302;2023-07-20T06:15:41;97070.44;;;18.27;54.59
72210;BME280;60113;48.762;12.302;2023-07-20T06:18:10;97071.78;;;18.31;58.70
72210;BME280;60113;48.762;12.302;2023-07-20T06:20:35;97074.28;;;18.24;57.43
72210;BME280;60113;48.762;12.302;2023-07-20T06:23:00;97073.94;;;18.27;57.83
72210;BME280;60113;48.762;12.302;2023-07-20T06:25:39;97073.75;;;18.37;58.19
72210;BME280;60113;48.762;12.302;2023-07-20T06:28:07;97076.88;;;18.49;54.53
72210;BME280;60113;48.762;12.302;2023-07-20T06:30:39;97076.34;;;18.54;57.30
72210;BME280;60113;48.762;12.302;2023-07-20T06:33:05;97053.88;;;18.56;57.91
72210;BME280;60113;48.762;12.302;2023-07-20T06:35:41;97077.03;;;18.47;59.24
72210;BME280;60113;48.762;12.302;2023-07-20T06:38:08;97072.38;;;18.49;58.20
72210;BME280;60113;48.762;12.302;2023-07-20T06:40:51;97074.31;;;18.64;56.80
72210;BME280;60113;48.762;12.302;2023-07-20T06:43:17;97072.44;;;18.73;56.99
72210;BME280;60113;48.762;12.302;2023-07-20T06:45:42;97071.34;;;18.91;54.74
72210;BME280;60113;48.762;12.302;2023-07-20T06:48:11;97075.19;;;19.20;54.47
72210;BME280;60113;48.762;12.302;2023-07-20T06:50:37;97067.97;;;19.52;56.78
72210;BME280;60113;48.762;12.302;2023-07-20T06:53:21;97074.34;;;19.90;55.75
72210;BME280;60113;48.762;12.302;2023-07-20T06:55:46;97082.13;;;20.15;55.39
72210;BME280;60113;48.762;12.302;2023-07-20T06:58:11;97079.63;;;20.13;56.58
72210;BME280;60113;48.762;12.302;2023-07-20T07:00:40;97069.25;;;20.18;56.53
72210;BME280;60113;48.762;12.302;2023-07-20T07:03:14;97073.59;;;20.49;55.61
72210;BME280;60113;48.762;12.302;2023-07-20T07:05:43;97067.22;;;20.66;55.74
72210;BME280;60113;48.762;12.302;2023-07-20T07:08:10;97069.75;;;20.89;55.67
72210;BME280;60113;48.762;12.302;2023-07-20T07:10:50;97067.16;;;21.33;55.69
72210;BME280;60113;48.762;12.302;2023-07-20T07:13:16;97067.03;;;21.41;55.32
72210;BME280;60113;48.762;12.302;2023-07-20T07:15:42;97062.88;;;21.17;55.27
72210;BME280;60113;48.762;12.302;2023-07-20T07:18:16;97072.88;;;21.08;54.80
72210;BME280;60113;48.762;12.302;2023-07-20T07:20:52;97066.19;;;20.97;54.88
72210;BME280;60113;48.762;12.302;2023-07-20T07:23:21;97079.97;;;20.85;54.48
72210;BME280;60113;48.762;12.302;2023-07-20T07:25:49;97077.41;;;20.92;54.82
72210;BME280;60113;48.762;12.302;2023-07-20T07:28:17;97057.53;;;21.17;54.77
72210;BME280;60113;48.762;12.302;2023-07-20T07:30:42;97073.13;;;21.57;54.73
72210;BME280;60113;48.762;12.302;2023-07-20T07:33:11;97072.94;;;21.80;54.17
72210;BME280;60113;48.762;12.302;2023-07-20T07:35:45;97080.91;;;21.95;53.75
72210;BME280;60113;48.762;12.302;2023-07-20T07:38:14;97084.72;;;22.15;54.71
72210;BME280;60113;48.762;12.302;2023-07-20T07:40:40;97072.84;;;22.24;53.43
72210;BME280;60113;48.762;12.302;2023-07-20T07:43:05;97083.22;;;22.34;53.47
72210;BME280;60113;48.762;12.302;2023-07-20T07:45:34;97080.34;;;22.42;52.84
72210;BME280;60113;48.762;12.302;2023-07-20T07:48:04;97078.91;;;22.40;53.57
72210;BME280;60113;48.762;12.302;2023-07-20T07:50:42;97082.03;;;22.43;52.51
72210;BME280;60113;48.762;12.302;2023-07-20T07:53:19;97087.38;;;22.43;52.55
72210;BME280;60113;48.762;12.302;2023-07-20T07:55:47;97096.00;;;22.39;52.13
72210;BME280;60113;48.762;12.302;2023-07-20T07:58:16;97088.97;;;22.38;51.31
72210;BME280;60113;48.762;12.302;2023-07-20T08:00:53;97095.16;;;22.38;51.18
72210;BME280;60113;48.762;12.302;2023-07-20T08:03:21;97087.28;;;22.58;49.70
72210;BME280;60113;48.762;12.302;2023-07-20T08:05:55;97092.25;;;22.62;48.04
72210;BME280;60113;48.762;12.302;2023-07-20T08:08:21;97089.25;;;22.85;51.01
72210;BME280;60113;48.762;12.302;2023-07-20T08:11:01;97095.69;;;22.97;49.71
72210;BME280;60113;48.762;12.302;2023-07-20T08:13:29;97091.94;;;22.85;49.87
72210;BME280;60113;48.762;12.302;2023-07-20T08:15:55;97098.16;;;22.57;48.21
72210;BME280;60113;48.762;12.302;2023-07-20T08:18:23;97085.88;;;22.34;50.78
72210;BME280;60113;48.762;12.302;2023-07-20T08:20:54;97093.94;;;22.41;49.84
72210;BME280;60113;48.762;12.302;2023-07-20T08:23:20;97095.34;;;22.65;49.00
72210;BME280;60113;48.762;12.302;2023-07-20T08:25:45;97097.28;;;22.85;48.95
72210;BME280;60113;48.762;12.302;2023-07-20T08:28:14;97091.81;;;23.07;49.60
72210;BME280;60113;48.762;12.302;2023-07-20T08:30:41;97095.97;;;23.16;48.90
72210;BME280;60113;48.762;12.302;2023-07-20T08:33:07;97091.00;;;23.13;48.18
72210;BME280;60113;48.762;12.302;2023-07-20T08:35:35;97096.53;;;23.05;49.24
72210;BME280;60113;48.762;12.302;2023-07-20T08:38:01;97101.84;;;22.98;48.67
72210;BME280;60113;48.762;12.302;2023-07-20T08:40:26;97101.16;;;22.76;48.31
72210;BME280;60113;48.762;12.302;2023-07-20T08:42:56;97098.84;;;22.66;47.88
72210;BME280;60113;48.762;12.302;2023-07-20T08:45:29;97092.50;;;22.73;45.02
72210;BME280;60113;48.762;12.302;2023-07-20T08:47:58;97088.97;;;23.22;47.33
72210;BME280;60113;48.762;12.302;2023-07-20T08:50:27;97087.63;;;23.53;45.10
72210;BME280;60113;48.762;12.302;2023-07-20T08:52:55;97085.34;;;23.77;45.98
72210;BME280;60113;48.762;12.302;2023-07-20T08:55:28;97086.50;;;23.34;44.65
72210;BME280;60113;48.762;12.302;2023-07-20T08:58:00;97078.63;;;23.12;44.69
72210;BME280;60113;48.762;12.302;2023-07-20T09:00:38;97084.50;;;22.80;46.10
72210;BME280;60113;48.762;12.302;2023-07-20T09:03:06;97070.44;;;22.65;45.17
72210;BME280;60113;48.762;12.302;2023-07-20T09:05:48;97081.50;;;23.04;46.17
72210;BME280;60113;48.762;12.302;2023-07-20T09:08:14;97065.44;;;23.17;46.14
72210;BME280;60113;48.762;12.302;2023-07-20T09:10:42;97077.16;;;23.03;46.08
72210;BME280;60113;48.762;12.302;2023-07-20T09:13:07;97075.94;;;23.12;45.82
72210;BME280;60113;48.762;12.302;2023-07-20T09:15:54;97079.97;;;23.50;45.08
72210;BME280;60113;48.762;12.302;2023-07-20T09:18:32;97075.03;;;23.60;45.72
72210;BME280;60113;48.762;12.302;2023-07-20T09:21:03;97071.69;;;23.38;43.94
72210;BME280;60113;48.762;12.302;2023-07-20T09:23:35;97071.94;;;23.50;45.12
72210;BME280;60113;48.762;12.302;2023-07-20T09:26:13;97069.47;;;23.48;43.90
72210;BME280;60113;48.762;12.302;2023-07-20T09:28:51;97076.88;;;23.46;44.62
72210;BME280;60113;48.762;12.302;2023-07-20T09:31:20;97072.31;;;23.54;45.63
72210;BME280;60113;48.762;12.302;2023-07-20T09:33:46;97074.16;;;23.40;44.66
72210;BME280;60113;48.762;12.302;2023-07-20T09:36:12;97072.13;;;23.42;44.13
72210;BME280;60113;48.762;12.302;2023-07-20T09:38:49;97071.50;;;23.46;44.91
72210;BME280;60113;48.762;12.302;2023-07-20T09:41:18;97068.84;;;23.67;44.44
72210;BME280;60113;48.762;12.302;2023-07-20T09:43:45;97066.56;;;23.97;43.85
72210;BME280;60113;48.762;12.302;2023-07-20T09:46:13;97060.94;;;24.33;40.60
72210;BME280;60113;48.762;12.302;2023-07-20T09:48:51;97060.63;;;24.75;38.36
72210;BME280;60113;48.762;12.302;2023-07-20T09:51:23;97058.63;;;25.09;40.08
72210;BME280;60113;48.762;12.302;2023-07-20T09:53:55;97066.91;;;25.40;43.26
72210;BME280;60113;48.762;12.302;2023-07-20T09:56:21;97052.88;;;25.70;40.63
72210;BME280;60113;48.762;12.302;2023-07-20T09:58:48;97050.63;;;25.67;42.31
72210;BME280;60113;48.762;12.302;2023-07-20T10:01:18;97062.03;;;24.78;39.06
72210;BME280;60113;48.762;12.302;2023-07-20T10:04:02;97069.50;;;24.76;42.04
72210;BME280;60113;48.762;12.302;2023-07-20T10:06:42;97067.09;;;24.54;43.29
72210;BME280;60113;48.762;12.302;2023-07-20T10:09:12;97069.19;;;24.45;43.32
72210;BME280;60113;48.762;12.302;2023-07-20T10:11:48;97069.84;;;24.33;42.10
72210;BME280;60113;48.762;12.302;2023-07-20T10:14:23;97070.88;;;24.19;41.75
72210;BME280;60113;48.762;12.302;2023-07-20T10:16:55;97071.72;;;23.85;42.56
72210;BME280;60113;48.762;12.302;2023-07-20T10:19:44;97061.84;;;23.79;43.06
72210;BME280;60113;48.762;12.302;2023-07-20T10:22:19;97066.97;;;23.60;42.97
72210;BME280;60113;48.762;12.302;2023-07-20T10:24:48;97063.81;;;23.30;43.04
72210;BME280;60113;48.762;12.302;2023-07-20T10:27:17;97069.78;;;23.25;43.27
72210;BME280;60113;48.762;12.302;2023-07-20T10:29:43;97068.56;;;23.21;43.31
72210;BME280;60113;48.762;12.302;2023-07-20T10:32:09;97069.97;;;23.10;43.27
72210;BME280;60113;48.762;12.302;2023-07-20T10:34:37;97064.63;;;23.10;42.72
72210;BME280;60113;48.762;12.302;2023-07-20T10:37:51;97067.69;;;23.14;42.14
72210;BME280;60113;48.762;12.302;2023-07-20T10:40:25;97058.91;;;23.40;41.45
72210;BME280;60113;48.762;12.302;2023-07-20T10:42:50;97061.81;;;23.52;42.96
72210;BME280;60113;48.762;12.302;2023-07-20T10:45:17;97055.03;;;23.77;42.10
72210;BME280;60113;48.762;12.302;2023-07-20T10:47:45;97052.94;;;23.99;43.09
72210;BME280;60113;48.762;12.302;2023-07-20T10:50:12;97063.22;;;24.36;42.75
72210;BME280;60113;48.762;12.302;2023-07-20T10:52:40;97058.78;;;24.69;41.57
72210;BME280;60113;48.762;12.302;2023-07-20T10:55:15;97054.34;;;24.95;37.96
72210;BME280;60113;48.762;12.302;2023-07-20T10:57:41;97037.22;;;25.28;39.44
72210;BME280;60113;48.762;12.302;2023-07-20T11:00:13;97050.16;;;25.38;38.70
72210;BME280;60113;48.762;12.302;2023-07-20T11:02:49;97025.81;;;25.33;37.99
72210;BME280;60113;48.762;12.302;2023-07-20T11:05:33;97037.31;;;25.15;37.08
72210;BME280;60113;48.762;12.302;2023-07-20T11:08:38;97038.63;;;25.31;36.51
72210;BME280;60113;48.762;12.302;2023-07-20T11:11:30;97034.38;;;25.49;36.84
72210;BME280;60113;48.762;12.302;2023-07-20T11:14:05;97029.53;;;26.08;38.59
72210;BME280;60113;48.762;12.302;2023-07-20T11:16:45;97024.50;;;26.38;40.69
72210;BME280;60113;48.762;12.302;2023-07-20T11:19:15;97011.84;;;26.57;37.27
72210;BME280;60113;48.762;12.302;2023-07-20T11:21:50;97024.50;;;26.56;38.55
72210;BME280;60113;48.762;12.302;2023-07-20T11:24:16;97019.19;;;26.50;40.17
72210;BME280;60113;48.762;12.302;2023-07-20T11:26:46;97017.25;;;26.57;36.47
72210;BME280;60113;48.762;12.302;2023-07-20T11:29:19;97011.50;;;26.84;34.66
72210;BME280;60113;48.762;12.302;2023-07-20T11:31:49;97012.06;;;27.05;35.68
72210;BME280;60113;48.762;12.302;2023-07-20T11:34:17;97012.97;;;26.99;38.21
72210;BME280;60113;48.762;12.302;2023-07-20T11:36:45;97009.66;;;26.96;38.86
72210;BME280;60113;48.762;12.302;2023-07-20T11:39:15;97007.88;;;27.09;37.71
72210;BME280;60113;48.762;12.302;2023-07-20T11:41:50;97002.63;;;27.26;33.84
72210;BME280;60113;48.762;12.302;2023-07-20T11:44:20;97005.00;;;27.23;35.02
72210;BME280;60113;48.762;12.302;2023-07-20T11:47:06;96996.84;;;27.11;32.66
72210;BME280;60113;48.762;12.302;2023-07-20T11:49:47;96991.84;;;27.26;35.96
72210;BME280;60113;48.762;12.302;2023-07-20T11:52:19;96994.22;;;27.46;34.60
72210;BME280;60113;48.762;12.302;2023-07-20T11:54:45;96996.13;;;27.58;36.13
72210;BME280;60113;48.762;12.302;2023-07-20T11:57:17;96984.91;;;27.18;30.97
72210;BME280;60113;48.762;12.302;2023-07-20T11:59:56;96987.75;;;27.24;31.17
72210;BME280;60113;48.762;12.302;2023-07-20T12:02:29;96984.59;;;27.51;32.55
72210;BME280;60113;48.762;12.302;2023-07-20T12:04:56;96976.28;;;27.52;32.75
72210;BME280;60113;48.762;12.302;2023-07-20T12:07:21;96974.06;;;27.37;34.43
72210;BME280;60113;48.762;12.302;2023-07-20T12:10:12;96971.00;;;27.33;30.79
72210;BME280;60113;48.762;12.302;2023-07-20T12:12:42;96975.47;;;27.64;34.44
72210;BME280;60113;48.762;12.302;2023-07-20T12:17:53;96970.66;;;28.14;35.33
72210;BME280;60113;48.762;12.302;2023-07-20T12:20:33;96954.91;;;28.23;28.94
72210;BME280;60113;48.762;12.302;2023-07-20T12:23:10;96968.22;;;28.00;30.23
72210;BME280;60113;48.762;12.302;2023-07-20T12:25:40;96966.59;;;27.87;35.68
72210;BME280;60113;48.762;12.302;2023-07-20T12:28:08;96969.25;;;27.51;35.63
72210;BME280;60113;48.762;12.302;2023-07-20T12:30:37;96960.19;;;27.21;34.89
72210;BME280;60113;48.762;12.302;2023-07-20T12:33:18;96951.72;;;27.06;35.57
72210;BME280;60113;48.762;12.302;2023-07-20T12:35:46;96954.03;;;26.71;33.28
72210;BME280;60113;48.762;12.302;2023-07-20T12:38:14;96961.81;;;26.30;33.23
72210;BME280;60113;48.762;12.302;2023-07-20T12:40:39;96958.31;;;25.92;36.18
72210;BME280;60113;48.762;12.302;2023-07-20T12:43:08;96957.13;;;25.63;35.91
72210;BME280;60113;48.762;12.302;2023-07-20T12:45:36;96958.03;;;25.50;35.56
72210;BME280;60113;48.762;12.302;2023-07-20T12:48:05;96950.72;;;25.57;34.25
72210;BME280;60113;48.762;12.302;2023-07-20T12:50:30;96942.72;;;25.76;33.12
72210;BME280;60113;48.762;12.302;2023-07-20T12:53:14;96946.47;;;26.12;33.37
72210;BME280;60113;48.762;12.302;2023-07-20T12:55:40;96940.50;;;26.48;34.90
72210;BME280;60113;48.762;12.302;2023-07-20T12:58:12;96943.97;;;26.67;32.22
72210;BME280;60113;48.762;12.302;2023-07-20T13:00:38;96934.19;;;26.84;32.45
72210;BME280;60113;48.762;12.302;2023-07-20T13:03:04;96937.09;;;26.83;33.77
72210;BME280;60113;48.762;12.302;2023-07-20T13:05:32;96935.00;;;26.85;35.80
72210;BME280;60113;48.762;12.302;2023-07-20T13:08:01;96933.50;;;26.89;35.81
72210;BME280;60113;48.762;12.302;2023-07-20T13:10:39;96933.75;;;26.57;31.68
72210;BME280;60113;48.762;12.302;2023-07-20T13:13:05;96946.31;;;26.07;33.44
72210;BME280;60113;48.762;12.302;2023-07-20T13:15:32;96941.09;;;26.50;31.49
72210;BME280;60113;48.762;12.302;2023-07-20T13:17:58;96935.69;;;26.80;31.09
72210;BME280;60113;48.762;12.302;2023-07-20T13:20:24;96927.34;;;27.13;30.62
72210;BME280;60113;48.762;12.302;2023-07-20T13:22:52;96930.44;;;27.28;33.78
72210;BME280;60113;48.762;12.302;2023-07-20T13:25:21;96926.78;;;27.58;34.09